Flight Information

DEPARTURE
SACRAMENTO, CA
Elevation:
26
Runways:
16R/34L - 8598x150 - CONC-G
16L/34R - 8605x150 - CONC-G
Active PE Departure:
16L - 16R
Current PE ATIS:
D
Altimeter:
29.98
Remarks:
V F R DEPARTURES CONTACT CLEARANCE DELIVERY, ADVISE ON COURSE HEADING, ALTITUDE, AND IF FLIGHT FOLLOWING IS REQUESTED.
ATIS:
126.75 916-874-0679
Clearance Delivery:
121.1
Ground:
121.7
Tower:
CAPITOL TOWER 125.7
DESTINATION
,
Elevation:
TPA:
1000 (est.)


6847.7 NM69° True-16° Var53° HDG

Flight Plan:
(click to file on line)

1. Type
2. Aircraft Identification
3. Aircraft Type / Special Equipment
4. True Airspeed
kts
5. Departure Airport
(ICAO code)
6. Arriving Airport
(ICAO code)
7. Cruising Altitude
ft
8. Alternate Airport
(ICAO code)
9. Route of Flight
10. Remarks


00:00:00 Departure ATIS: Destination ATIS:

Clearance Limit:
Route:
Altitude: Expect in minutes
Frequency:
Transponder: (7500 Hijack / 7600 Lost Comms / 7700 Emergency)


KSMF 080253Z 03004KT 10SM CLR 16/07 A2998 RMK AO2 SLP153 T01560072 56020
Time: 2020-04-08T02:53:00Z
1586315232
Winds: 30 @ 4 kts
Visibility: 10.0 sm
Clouds (AGL): CLR
Temperature: 15.6 C
Dew Point: 7.2 C
Pressure: 29.97933 in Hgbr


Notes:

Data extracted from FAA Digital Chart Supplement. Effective: 0901Z Thursday, Mar 26, 2020 to 0901Z Thursday, May 21, 2020
Current ATIS data is provided courtisy of PilotEdge.